Crown Princess — ZCDM6 — position and weather

sailwx.info

Track history (hours):
 
Tides and Currents Weather Stations Pressure Air Temp Water Temp Dewpoint Dewpoint Depression Visibility Wind Speed Wind Dir Waves Ship Positions

Crown Princess

Last reported at 2015-Mar-30 01:25 UTC. Time now 2015-Mar-30 17:37 UTC.
Position N 27°07' W 115°05'.

Type: Ship. MMSI: 310500000.

Date/timePositionNaut miles runAvg speedWind from/ knotsBaromVisibWave heightAir tempDewpointWater temp
2015-Mar-30 01:25N 27°07' W 115°05'1918.7
2015-Mar-30 00:23N 27°22' W 115°18'1618.7
2015-Mar-29 23:34N 27°34' W 115°29'1918.8
2015-Mar-29 22:33N 27°49' W 115°42'6218.1
2015-Mar-29 19:07N 28°46' W 116°11'1018.4
2015-Mar-29 18:33N 28°55' W 116°15'1818.5
2015-Mar-29 17:34N 29°13' W 116°22'2018.1
2015-Mar-29 16:27N 29°32' W 116°30'1916.7
2015-Mar-29 15:19N 29°49' W 116°37'1316.2
2015-Mar-29 14:31N 30°01' W 116°42'1716.8
2015-Mar-29 13:30N 30°18' W 116°49'1616.9
2015-Mar-29 12:33N 30°33' W 116°55'1716.9
2015-Mar-29 11:33N 30°49' W 117°02'1716.7
2015-Mar-29 10:32N 31°05' W 117°08'1716.8
2015-Mar-29 09:33N 31°20' W 117°15'1717.0
2015-Mar-29 08:33N 31°36' W 117°23'1717.1
2015-Mar-29 07:32N 31°52' W 117°30'1716.8
2015-Mar-29 06:33N 32°08' W 117°35'1716.9
2015-Mar-29 05:34N 32°24' W 117°42'1616.3
2015-Mar-29 04:33N 32°39' W 117°49'1717.0
2015-Mar-29 03:33N 32°56' W 117°52'1716.8
2015-Mar-29 02:33N 33°11' W 118°00'1616.4
2015-Mar-29 01:33N 33°26' W 118°09'1414.0
2015-Mar-29 00:33N 33°39' W 118°15'6 6.0
2015-Mar-28 23:33N 33°45' W 118°17'0 0.0
2015-Mar-28 22:32N 33°45' W 118°17'0 0.0
2015-Mar-28 21:32N 33°45' W 118°17'0 0.0
2015-Mar-28 20:31N 33°45' W 118°17'0 0.0
2015-Mar-28 19:31N 33°45' W 118°17'0 0.0
2015-Mar-28 18:34N 33°45' W 118°17'0 0.0
2015-Mar-28 17:18N 33°45' W 118°17'0 0.0
2015-Mar-28 16:33N 33°45' W 118°17'0 0.0
2015-Mar-28 15:26N 33°45' W 118°17'0 0.0
2015-Mar-28 14:32N 33°45' W 118°17'0 0.0
2015-Mar-28 13:31N 33°45' W 118°17'1 0.7
2015-Mar-28 12:33N 33°44' W 118°17'10 9.6
2015-Mar-28 11:33N 33°36' W 118°10'1514.5
2015-Mar-28 10:34N 33°23' W 118°04'1514.6
2015-Mar-28 09:33N 33°09' W 117°57'1312.6
2015-Mar-28 08:33N 32°58' W 117°50'1212.1
2015-Mar-28 07:34N 32°46' W 117°48'1212.2
2015-Mar-28 06:34N 32°34' W 117°44'1312.6
2015-Mar-28 05:34N 32°24' W 117°35'1212.3
2015-Mar-28 04:34N 32°14' W 117°26'1212.2
2015-Mar-28 03:34N 32°06' W 117°16'1211.8
2015-Mar-28 02:33N 31°59' W 117°05'1211.9
2015-Mar-28 01:33N 31°54' W 116°52'9 0.7
2015-Mar-27 12:17N 31°45' W 116°49'811.0
2015-Mar-27 11:34N 31°42' W 116°58'1110.6
2015-Mar-27 10:33N 31°38' W 117°10'1010.3
2015-Mar-27 09:33N 31°34' W 117°21'9 9.4
2015-Mar-27 08:33N 31°42' W 117°28'1110.6
2015-Mar-27 07:33N 31°51' W 117°33'1110.5
2015-Mar-27 06:34N 32°00' W 117°39'1010.4
2015-Mar-27 05:34N 32°10' W 117°35'1110.7
2015-Mar-27 04:33N 32°20' W 117°31'1010.2
2015-Mar-27 03:33N 32°29' W 117°24'1110.7
2015-Mar-27 02:33N 32°36' W 117°15'8 7.5
2015-Mar-27 01:33N 32°43' W 117°11'0 0.3
2015-Mar-27 00:23N 32°43' W 117°10'0 0.0
2015-Mar-26 23:29N 32°43' W 117°10'0 0.0
2015-Mar-26 22:22N 32°43' W 117°10'0 0.0
2015-Mar-26 21:28N 32°43' W 117°10'0 0.0
2015-Mar-26 20:28N 32°43' W 117°10'0 0.0
2015-Mar-26 19:33N 32°43' W 117°10'0 0.0
2015-Mar-26 18:32N 32°43' W 117°10'0 0.0
2015-Mar-26 17:26N 32°43' W 117°10'0 0.0
2015-Mar-26 16:32N 32°43' W 117°10'0 0.0
2015-Mar-26 15:07N 32°43' W 117°10'0 0.0
2015-Mar-26 14:28N 32°43' W 117°10'1 0.8
2015-Mar-26 13:33N 32°43' W 117°11'8 7.8
2015-Mar-26 12:33N 32°37' W 117°16'1414.0
2015-Mar-26 11:34N 32°42' W 117°32'1414.0
2015-Mar-26 10:33N 32°53' W 117°43'1515.5
2015-Mar-26 09:33N 33°05' W 117°54'1716.5
2015-Mar-26 08:33N 33°18' W 118°06'1515.1
2015-Mar-26 07:33N 33°32' W 118°13'1514.7
2015-Mar-26 06:33N 33°40' W 118°28'1414.3
2015-Mar-26 05:33N 33°47' W 118°43'1414.2
2015-Mar-26 04:33N 33°54' W 118°58'4112.9
2015-Mar-26 01:20N 34°15' W 119°41'910.8
2015-Mar-26 00:31N 34°24' W 119°41'0 0.0
2015-Mar-25 15:15N 34°24' W 119°41'238 7.9
2015-Mar-24 09:05N 37°30' W 122°43'510.3
2015-Mar-24 08:33N 37°35' W 122°44'1010.0
2015-Mar-24 07:33N 37°45' W 122°40'1313.0
2015-Mar-24 06:33N 37°49' W 122°25'1 0.9
2015-Mar-24 05:30N 37°48' W 122°24'0 0.0
2015-Mar-24 04:30N 37°48' W 122°24'0 0.0
2015-Mar-24 03:32N 37°48' W 122°24'0 0.0
2015-Mar-24 02:32N 37°48' W 122°24'0 0.0
2015-Mar-24 01:31N 37°48' W 122°24'0 0.0
2015-Mar-24 00:31N 37°48' W 122°24'0 0.0
2015-Mar-23 23:33N 37°48' W 122°24'0 0.0
2015-Mar-23 22:33N 37°48' W 122°24'0 0.0
2015-Mar-23 21:33N 37°48' W 122°24'0 0.0
2015-Mar-23 20:33N 37°48' W 122°24'0 0.0
2015-Mar-23 19:33N 37°48' W 122°24'0 0.0
2015-Mar-23 18:32N 37°48' W 122°24'0 0.0
2015-Mar-23 17:32N 37°48' W 122°24'0 0.0
2015-Mar-23 16:31N 37°48' W 122°24'0 0.0
2015-Mar-23 15:28N 37°48' W 122°24'0 0.4
2015-Mar-23 14:33N 37°49' W 122°24'1111.3
2015-Mar-23 13:33N 37°46' W 122°38'10 9.8
2015-Mar-23 12:33N 37°36' W 122°40'318 9.0
2015-Mar-22 01:18N 33°38' W 118°21'6 7.8
2015-Mar-22 00:33N 33°42' W 118°15'1 0.1
2015-Mar-21 13:20N 33°43' W 118°16'810.4
2015-Mar-21 12:34N 33°37' W 118°10'1514.9
2015-Mar-21 11:33N 33°22' W 118°04'2020.0
2015-Mar-21 10:33N 33°04' W 117°54'2019.7
2015-Mar-21 09:33N 32°45' W 117°49'2019.9
2015-Mar-21 08:33N 32°26' W 117°43'2222.1
2015-Mar-21 07:33N 32°05' W 117°33'2222.0
2015-Mar-21 06:33N 31°45' W 117°24'  
Track history (hours):
 
Tides and Currents Weather Stations Pressure Air Temp Water Temp Dewpoint Dewpoint Depression Visibility Wind Speed Wind Dir Waves Ship Positions

Crown Princess

Last reported at 2015-Mar-30 01:25 UTC. Time now 2015-Mar-30 17:37 UTC.
Position N 27°07' W 115°05'.

Type: Ship. MMSI: 310500000.

Date/timePositionNaut miles runAvg speedWind from/ knotsBaromVisibWave heightAir tempDewpointWater temp
2015-Mar-30 01:25N 27°07' W 115°05'1918.7
2015-Mar-30 00:23N 27°22' W 115°18'1618.7
2015-Mar-29 23:34N 27°34' W 115°29'1918.8
2015-Mar-29 22:33N 27°49' W 115°42'6218.1
2015-Mar-29 19:07N 28°46' W 116°11'1018.4
2015-Mar-29 18:33N 28°55' W 116°15'1818.5
2015-Mar-29 17:34N 29°13' W 116°22'2018.1
2015-Mar-29 16:27N 29°32' W 116°30'1916.7
2015-Mar-29 15:19N 29°49' W 116°37'1316.2
2015-Mar-29 14:31N 30°01' W 116°42'1716.8
2015-Mar-29 13:30N 30°18' W 116°49'1616.9
2015-Mar-29 12:33N 30°33' W 116°55'1716.9
2015-Mar-29 11:33N 30°49' W 117°02'1716.7
2015-Mar-29 10:32N 31°05' W 117°08'1716.8
2015-Mar-29 09:33N 31°20' W 117°15'1717.0
2015-Mar-29 08:33N 31°36' W 117°23'1717.1
2015-Mar-29 07:32N 31°52' W 117°30'1716.8
2015-Mar-29 06:33N 32°08' W 117°35'1716.9
2015-Mar-29 05:34N 32°24' W 117°42'1616.3
2015-Mar-29 04:33N 32°39' W 117°49'1717.0
2015-Mar-29 03:33N 32°56' W 117°52'1716.8
2015-Mar-29 02:33N 33°11' W 118°00'1616.4
2015-Mar-29 01:33N 33°26' W 118°09'1414.0
2015-Mar-29 00:33N 33°39' W 118°15'6 6.0
2015-Mar-28 23:33N 33°45' W 118°17'0 0.0
2015-Mar-28 22:32N 33°45' W 118°17'0 0.0
2015-Mar-28 21:32N 33°45' W 118°17'0 0.0
2015-Mar-28 20:31N 33°45' W 118°17'0 0.0
2015-Mar-28 19:31N 33°45' W 118°17'0 0.0
2015-Mar-28 18:34N 33°45' W 118°17'0 0.0
2015-Mar-28 17:18N 33°45' W 118°17'0 0.0
2015-Mar-28 16:33N 33°45' W 118°17'0 0.0
2015-Mar-28 15:26N 33°45' W 118°17'0 0.0
2015-Mar-28 14:32N 33°45' W 118°17'0 0.0
2015-Mar-28 13:31N 33°45' W 118°17'1 0.7
2015-Mar-28 12:33N 33°44' W 118°17'10 9.6
2015-Mar-28 11:33N 33°36' W 118°10'1514.5
2015-Mar-28 10:34N 33°23' W 118°04'1514.6
2015-Mar-28 09:33N 33°09' W 117°57'1312.6
2015-Mar-28 08:33N 32°58' W 117°50'1212.1
2015-Mar-28 07:34N 32°46' W 117°48'1212.2
2015-Mar-28 06:34N 32°34' W 117°44'1312.6
2015-Mar-28 05:34N 32°24' W 117°35'1212.3
2015-Mar-28 04:34N 32°14' W 117°26'1212.2
2015-Mar-28 03:34N 32°06' W 117°16'1211.8
2015-Mar-28 02:33N 31°59' W 117°05'1211.9
2015-Mar-28 01:33N 31°54' W 116°52'9 0.7
2015-Mar-27 12:17N 31°45' W 116°49'811.0
2015-Mar-27 11:34N 31°42' W 116°58'1110.6
2015-Mar-27 10:33N 31°38' W 117°10'1010.3
2015-Mar-27 09:33N 31°34' W 117°21'9 9.4
2015-Mar-27 08:33N 31°42' W 117°28'1110.6
2015-Mar-27 07:33N 31°51' W 117°33'1110.5
2015-Mar-27 06:34N 32°00' W 117°39'1010.4
2015-Mar-27 05:34N 32°10' W 117°35'1110.7
2015-Mar-27 04:33N 32°20' W 117°31'1010.2
2015-Mar-27 03:33N 32°29' W 117°24'1110.7
2015-Mar-27 02:33N 32°36' W 117°15'8 7.5
2015-Mar-27 01:33N 32°43' W 117°11'0 0.3
2015-Mar-27 00:23N 32°43' W 117°10'0 0.0
2015-Mar-26 23:29N 32°43' W 117°10'0 0.0
2015-Mar-26 22:22N 32°43' W 117°10'0 0.0
2015-Mar-26 21:28N 32°43' W 117°10'0 0.0
2015-Mar-26 20:28N 32°43' W 117°10'0 0.0
2015-Mar-26 19:33N 32°43' W 117°10'0 0.0
2015-Mar-26 18:32N 32°43' W 117°10'0 0.0
2015-Mar-26 17:26N 32°43' W 117°10'0 0.0
2015-Mar-26 16:32N 32°43' W 117°10'0 0.0
2015-Mar-26 15:07N 32°43' W 117°10'0 0.0
2015-Mar-26 14:28N 32°43' W 117°10'1 0.8
2015-Mar-26 13:33N 32°43' W 117°11'8 7.8
2015-Mar-26 12:33N 32°37' W 117°16'1414.0
2015-Mar-26 11:34N 32°42' W 117°32'1414.0
2015-Mar-26 10:33N 32°53' W 117°43'1515.5
2015-Mar-26 09:33N 33°05' W 117°54'1716.5
2015-Mar-26 08:33N 33°18' W 118°06'1515.1
2015-Mar-26 07:33N 33°32' W 118°13'1514.7
2015-Mar-26 06:33N 33°40' W 118°28'1414.3
2015-Mar-26 05:33N 33°47' W 118°43'1414.2
2015-Mar-26 04:33N 33°54' W 118°58'4112.9
2015-Mar-26 01:20N 34°15' W 119°41'910.8
2015-Mar-26 00:31N 34°24' W 119°41'0 0.0
2015-Mar-25 15:15N 34°24' W 119°41'238 7.9
2015-Mar-24 09:05N 37°30' W 122°43'510.3
2015-Mar-24 08:33N 37°35' W 122°44'1010.0
2015-Mar-24 07:33N 37°45' W 122°40'1313.0
2015-Mar-24 06:33N 37°49' W 122°25'1 0.9
2015-Mar-24 05:30N 37°48' W 122°24'0 0.0
2015-Mar-24 04:30N 37°48' W 122°24'0 0.0
2015-Mar-24 03:32N 37°48' W 122°24'0 0.0
2015-Mar-24 02:32N 37°48' W 122°24'0 0.0
2015-Mar-24 01:31N 37°48' W 122°24'0 0.0
2015-Mar-24 00:31N 37°48' W 122°24'0 0.0
2015-Mar-23 23:33N 37°48' W 122°24'0 0.0
2015-Mar-23 22:33N 37°48' W 122°24'0 0.0
2015-Mar-23 21:33N 37°48' W 122°24'0 0.0
2015-Mar-23 20:33N 37°48' W 122°24'0 0.0
2015-Mar-23 19:33N 37°48' W 122°24'0 0.0
2015-Mar-23 18:32N 37°48' W 122°24'0 0.0
2015-Mar-23 17:32N 37°48' W 122°24'0 0.0
2015-Mar-23 16:31N 37°48' W 122°24'0 0.0
2015-Mar-23 15:28N 37°48' W 122°24'0 0.4
2015-Mar-23 14:33N 37°49' W 122°24'1111.3
2015-Mar-23 13:33N 37°46' W 122°38'10 9.8
2015-Mar-23 12:33N 37°36' W 122°40'318 9.0
2015-Mar-22 01:18N 33°38' W 118°21'6 7.8
2015-Mar-22 00:33N 33°42' W 118°15'1 0.1
2015-Mar-21 13:20N 33°43' W 118°16'810.4
2015-Mar-21 12:34N 33°37' W 118°10'1514.9
2015-Mar-21 11:33N 33°22' W 118°04'2020.0
2015-Mar-21 10:33N 33°04' W 117°54'2019.7
2015-Mar-21 09:33N 32°45' W 117°49'2019.9
2015-Mar-21 08:33N 32°26' W 117°43'2222.1
2015-Mar-21 07:33N 32°05' W 117°33'2222.0
2015-Mar-21 06:33N 31°45' W 117°24'  

Dump ship's entire track history